createdAt,value
2023-03-01T00:01:22.936Z,91.69
2023-03-01T00:03:50.695Z,91.69
2023-03-01T00:06:19.063Z,91.79
2023-03-01T00:08:46.649Z,91.85
2023-03-01T00:11:18.092Z,91.79
2023-03-01T00:13:46.527Z,91.80
2023-03-01T00:16:22.829Z,91.83
2023-03-01T00:18:51.571Z,91.76
2023-03-01T00:21:21.260Z,91.68
2023-03-01T00:23:49.633Z,91.62
2023-03-01T00:26:19.277Z,91.60
2023-03-01T00:28:47.601Z,91.58
2023-03-01T00:31:25.964Z,91.54
2023-03-01T00:33:58.088Z,91.60
2023-03-01T00:36:29.099Z,91.66
2023-03-01T00:38:56.934Z,91.48
2023-03-01T00:41:24.627Z,91.49
2023-03-01T00:43:51.965Z,91.54
2023-03-01T00:46:21.665Z,91.43
2023-03-01T00:48:50.655Z,91.41
2023-03-01T00:51:26.669Z,91.46
2023-03-01T00:53:55.817Z,91.55
2023-03-01T00:56:23.164Z,91.55
2023-03-01T00:58:50.433Z,91.46
2023-03-01T01:01:20.714Z,91.37
2023-03-01T01:03:53.341Z,91.41
2023-03-01T01:06:26.703Z,91.41
2023-03-01T01:08:54.884Z,91.45
2023-03-01T01:11:25.069Z,91.56
2023-03-01T01:13:52.864Z,91.62
2023-03-01T01:16:22.924Z,91.60
2023-03-01T01:18:50.569Z,91.55
2023-03-01T01:21:23.727Z,91.52
2023-03-01T01:23:52.117Z,91.52
2023-03-01T01:26:21.255Z,91.45
2023-03-01T01:28:51.462Z,91.37
2023-03-01T01:31:19.928Z,91.29
2023-03-01T01:33:47.269Z,91.23
2023-03-01T01:36:14.500Z,91.14
2023-03-01T01:38:43.432Z,91.23
2023-03-01T01:41:12.846Z,91.15
2023-03-01T01:43:44.111Z,91.16
2023-03-01T01:46:26.318Z,91.16
2023-03-01T01:49:16.494Z,91.17
2023-03-01T01:51:46.606Z,91.15
2023-03-01T01:54:19.506Z,91.16
2023-03-01T01:56:54.234Z,91.20
2023-03-01T01:59:25.559Z,91.16
2023-03-01T02:01:53.897Z,91.11
2023-03-01T02:04:21.858Z,91.13
2023-03-01T02:06:56.913Z,91.18
2023-03-01T02:09:24.970Z,91.19
2023-03-01T02:11:53.075Z,91.22
2023-03-01T02:14:20.579Z,91.32
2023-03-01T02:16:48.375Z,91.43
2023-03-01T02:19:32.069Z,91.48
2023-03-01T02:22:19.594Z,91.43
2023-03-01T02:24:52.415Z,92.13
2023-03-01T02:27:25.735Z,91.93
2023-03-01T02:29:53.304Z,91.89
2023-03-01T02:32:26.046Z,91.85
2023-03-01T02:34:55.635Z,91.83
2023-03-01T02:37:25.775Z,91.72
2023-03-01T02:40:18.365Z,91.73
2023-03-01T02:42:58.500Z,91.76
2023-03-01T02:45:27.681Z,91.73
2023-03-01T02:47:56.451Z,91.70
2023-03-01T02:50:52.479Z,91.78
2023-03-01T02:53:28.945Z,91.84
2023-03-01T02:55:56.400Z,91.82
2023-03-01T02:58:23.642Z,91.87
2023-03-01T03:00:51.548Z,91.90
2023-03-01T03:03:21.572Z,92.04
2023-03-01T03:05:49.402Z,92.03
2023-03-01T03:08:24.872Z,92.03
2023-03-01T03:10:52.988Z,92.02
2023-03-01T03:13:20.241Z,92.04
2023-03-01T03:15:47.446Z,92.04
2023-03-01T03:18:17.691Z,91.89
2023-03-01T03:20:45.604Z,91.77
2023-03-01T03:23:14.008Z,91.70
2023-03-01T03:25:41.192Z,91.69
2023-03-01T03:28:11.592Z,91.75
2023-03-01T03:30:41.071Z,91.68
2023-03-01T03:33:10.666Z,91.96
2023-03-01T03:35:43.922Z,91.93
2023-03-01T03:38:16.821Z,91.83
2023-03-01T03:40:50.567Z,91.79
2023-03-01T03:43:23.588Z,91.76
2023-03-01T03:45:52.029Z,91.96
2023-03-01T03:48:20.216Z,91.96
2023-03-01T03:50:52.930Z,91.96
2023-03-01T03:53:21.298Z,91.95
2023-03-01T03:55:50.391Z,92.03
2023-03-01T03:58:20.674Z,92.02
2023-03-01T04:00:50.707Z,92.04
2023-03-01T04:03:19.848Z,92.05
2023-03-01T04:05:48.314Z,91.97
2023-03-01T04:08:15.570Z,91.97
2023-03-01T04:10:45.992Z,92.01
2023-03-01T04:13:16.327Z,92.09
2023-03-01T04:15:46.669Z,92.12
2023-03-01T04:18:15.849Z,92.18
2023-03-01T04:20:43.769Z,92.17
2023-03-01T04:23:17.326Z,92.24
2023-03-01T04:25:58.031Z,92.24
2023-03-01T04:28:28.287Z,92.25
2023-03-01T04:30:57.860Z,92.26
2023-03-01T04:33:25.979Z,92.22
2023-03-01T04:35:53.858Z,92.13
2023-03-01T04:38:22.333Z,92.17
2023-03-01T04:40:49.711Z,92.17
2023-03-01T04:43:16.931Z,92.20
2023-03-01T04:45:44.325Z,92.27
2023-03-01T04:48:11.574Z,92.22
2023-03-01T04:50:38.809Z,92.13
2023-03-01T04:53:06.061Z,92.13
2023-03-01T04:55:34.399Z,92.10
2023-03-01T04:58:01.574Z,92.00
2023-03-01T05:00:28.853Z,91.97
2023-03-01T05:02:58.974Z,91.90
2023-03-01T05:05:32.528Z,91.85
2023-03-01T05:08:02.483Z,91.82
2023-03-01T05:10:31.485Z,91.84
2023-03-01T05:12:59.640Z,91.85
2023-03-01T05:15:28.983Z,91.77
2023-03-01T05:18:00.121Z,91.76
2023-03-01T05:20:29.555Z,91.74
2023-03-01T05:23:00.875Z,91.74
2023-03-01T05:25:28.279Z,91.72
2023-03-01T05:27:55.450Z,91.68
2023-03-01T05:30:22.897Z,91.75
2023-03-01T05:32:56.783Z,91.63
2023-03-01T05:35:24.613Z,91.78
2023-03-01T05:37:52.399Z,91.79
2023-03-01T05:40:22.423Z,91.83
2023-03-01T05:42:55.209Z,91.90
2023-03-01T05:45:23.718Z,91.93
2023-03-01T05:47:51.690Z,91.97
2023-03-01T05:50:22.286Z,91.83
2023-03-01T05:53:00.858Z,91.79
2023-03-01T05:55:29.465Z,91.80
2023-03-01T05:57:59.693Z,91.71
2023-03-01T06:00:27.722Z,91.70
2023-03-01T06:02:56.422Z,91.67
2023-03-01T06:05:24.302Z,91.65
2023-03-01T06:07:52.221Z,91.51
2023-03-01T06:10:21.150Z,91.36
2023-03-01T06:12:48.492Z,91.33
2023-03-01T06:15:17.822Z,91.31
2023-03-01T06:17:46.942Z,91.34
2023-03-01T06:20:15.638Z,91.29
2023-03-01T06:22:44.355Z,91.18
2023-03-01T06:25:13.595Z,91.06
2023-03-01T06:27:41.528Z,90.76
2023-03-01T06:30:11.575Z,90.80
2023-03-01T06:32:42.927Z,90.87
2023-03-01T06:35:12.012Z,90.81
2023-03-01T06:37:40.192Z,90.74
2023-03-01T06:40:09.169Z,90.61
2023-03-01T06:42:36.876Z,90.49
2023-03-01T06:45:05.967Z,90.53
2023-03-01T06:47:34.172Z,90.48
2023-03-01T06:50:02.451Z,90.39
2023-03-01T06:52:30.392Z,90.28
2023-03-01T06:54:57.565Z,90.32
2023-03-01T06:57:24.859Z,90.24
2023-03-01T06:59:52.080Z,90.04
2023-03-01T07:02:19.608Z,90.02
2023-03-01T07:04:46.986Z,89.94
2023-03-01T07:07:14.116Z,90.04
2023-03-01T07:09:41.237Z,89.69
2023-03-01T07:12:09.004Z,89.76
2023-03-01T07:14:36.170Z,89.61
2023-03-01T07:17:03.359Z,89.57
2023-03-01T07:19:30.578Z,89.77
2023-03-01T07:21:57.949Z,89.55
2023-03-01T07:24:25.315Z,89.45
2023-03-01T07:26:53.023Z,89.16
2023-03-01T07:29:20.519Z,88.91
2023-03-01T07:31:47.768Z,88.75
2023-03-01T07:34:15.021Z,89.07
2023-03-01T07:36:44.086Z,88.90
2023-03-01T07:39:12.535Z,88.80
2023-03-01T07:41:39.720Z,88.51
2023-03-01T07:44:07.695Z,88.02
2023-03-01T07:46:34.886Z,87.13
2023-03-01T07:49:02.090Z,87.02
2023-03-01T07:51:29.344Z,87.11
2023-03-01T07:53:56.456Z,86.52
2023-03-01T07:56:23.630Z,86.50
2023-03-01T07:58:51.270Z,85.86
2023-03-01T08:01:21.317Z,86.18
2023-03-01T08:03:49.318Z,86.30
2023-03-01T08:06:17.974Z,85.78
2023-03-01T08:08:46.018Z,85.28
2023-03-01T08:11:15.083Z,85.05
2023-03-01T08:13:43.227Z,85.60
2023-03-01T08:16:16.041Z,84.40
2023-03-01T08:18:44.440Z,84.93
2023-03-01T08:21:14.142Z,84.33
2023-03-01T08:23:41.740Z,83.88
2023-03-01T08:26:19.558Z,83.63
2023-03-01T08:28:48.135Z,83.38
2023-03-01T08:31:15.424Z,82.33
2023-03-01T08:33:43.008Z,82.71
2023-03-01T08:36:10.352Z,82.70
2023-03-01T08:38:37.588Z,82.59
2023-03-01T08:41:05.382Z,82.13
2023-03-01T08:43:32.633Z,81.68
2023-03-01T08:45:59.868Z,81.01
2023-03-01T08:48:29.106Z,80.75
2023-03-01T08:50:56.721Z,80.64
2023-03-01T08:53:24.021Z,81.48
2023-03-01T08:55:51.314Z,80.96
2023-03-01T08:58:18.478Z,80.23
2023-03-01T09:00:45.605Z,79.62
2023-03-01T09:03:12.742Z,79.85
2023-03-01T09:05:39.913Z,80.10
2023-03-01T09:08:09.273Z,79.28
2023-03-01T09:10:39.222Z,79.35
2023-03-01T09:13:06.422Z,79.52
2023-03-01T09:15:34.447Z,79.07
2023-03-01T09:18:01.641Z,76.31
2023-03-01T09:20:28.921Z,72.98
2023-03-01T09:22:56.073Z,74.43
2023-03-01T09:25:23.921Z,75.55
2023-03-01T09:27:54.603Z,76.83
2023-03-01T09:30:22.395Z,77.92
2023-03-01T09:32:49.562Z,78.59
2023-03-01T09:35:16.901Z,79.00
2023-03-01T09:37:46.298Z,78.89
2023-03-01T09:40:17.248Z,79.90
2023-03-01T09:42:59.459Z,80.33
2023-03-01T09:45:34.043Z,80.50
2023-03-01T09:48:02.845Z,80.59
2023-03-01T09:50:40.523Z,80.56
2023-03-01T09:53:18.908Z,80.50
2023-03-01T09:56:13.657Z,80.51
2023-03-01T09:58:55.175Z,80.98
2023-03-01T10:01:33.861Z,81.28
2023-03-01T10:04:29.701Z,81.75
2023-03-01T10:07:12.224Z,82.25
2023-03-01T10:09:42.953Z,82.08
2023-03-01T10:12:13.580Z,82.20
2023-03-01T10:14:58.769Z,82.42
2023-03-01T10:17:37.024Z,82.50
2023-03-01T10:20:27.736Z,82.25
2023-03-01T10:22:56.279Z,82.10
2023-03-01T10:25:43.589Z,81.90
2023-03-01T10:28:35.607Z,81.81
2023-03-01T10:31:04.454Z,80.97
2023-03-01T10:33:38.404Z,80.90
2023-03-01T10:36:05.856Z,81.20
2023-03-01T10:38:50.625Z,81.47
2023-03-01T10:41:17.979Z,81.45
2023-03-01T10:43:56.514Z,81.26
2023-03-01T10:46:38.521Z,81.27
2023-03-01T10:49:18.982Z,81.48
2023-03-01T10:51:49.029Z,81.69
2023-03-01T10:54:23.186Z,81.53
2023-03-01T10:56:54.692Z,81.02
2023-03-01T10:59:31.457Z,80.54
2023-03-01T11:02:24.455Z,80.34
2023-03-01T11:05:25.007Z,80.96
2023-03-01T11:07:57.784Z,81.26
2023-03-01T11:10:30.541Z,81.50
2023-03-01T11:13:16.437Z,81.47
2023-03-01T11:15:44.513Z,81.43
2023-03-01T11:18:25.096Z,81.45
2023-03-01T11:21:01.043Z,81.31
2023-03-01T11:23:30.196Z,81.34
2023-03-01T11:26:03.728Z,80.90
2023-03-01T11:28:31.498Z,80.31
2023-03-01T11:31:13.197Z,80.67
2023-03-01T11:34:03.960Z,80.33
2023-03-01T11:36:47.027Z,80.14
2023-03-01T11:39:38.761Z,80.22
2023-03-01T11:42:19.418Z,79.48
2023-03-01T11:44:51.072Z,80.16
2023-03-01T11:47:40.344Z,80.48
2023-03-01T11:50:41.228Z,80.02
2023-03-01T11:53:26.273Z,80.26
2023-03-01T11:56:22.184Z,80.70
2023-03-01T11:59:28.344Z,80.34
2023-03-01T12:02:19.616Z,80.16
2023-03-01T12:05:01.931Z,79.74
2023-03-01T12:07:59.616Z,79.90
2023-03-01T12:10:36.841Z,80.46
2023-03-01T12:13:31.147Z,81.18
2023-03-01T12:16:39.068Z,81.14
2023-03-01T12:19:32.956Z,81.64
2023-03-01T12:22:09.176Z,81.73
2023-03-01T12:24:56.994Z,82.60
2023-03-01T12:27:43.717Z,83.05
2023-03-01T12:30:28.998Z,83.25
2023-03-01T12:33:23.808Z,83.76
2023-03-01T12:36:15.438Z,83.50
2023-03-01T12:39:15.121Z,83.64
2023-03-01T12:42:24.146Z,83.93
2023-03-01T12:45:15.987Z,83.97
2023-03-01T12:47:52.069Z,83.30
2023-03-01T12:50:30.842Z,84.01
2023-03-01T12:52:58.856Z,84.35
2023-03-01T12:55:32.077Z,84.79
2023-03-01T12:58:22.259Z,84.91
2023-03-01T13:01:04.826Z,84.84
2023-03-01T13:04:03.116Z,84.68
2023-03-01T13:06:51.477Z,84.17
2023-03-01T13:09:24.436Z,84.30
2023-03-01T13:11:51.589Z,84.65
2023-03-01T13:14:21.618Z,84.98
2023-03-01T13:16:51.687Z,84.42
2023-03-01T13:19:21.504Z,84.60
2023-03-01T13:21:51.082Z,84.30
2023-03-01T13:24:39.891Z,85.80
2023-03-01T13:27:07.124Z,86.45
2023-03-01T13:29:46.564Z,86.16
2023-03-01T13:32:43.066Z,86.76
2023-03-01T13:35:21.178Z,87.21
2023-03-01T13:37:48.684Z,87.22
2023-03-01T13:40:23.476Z,87.24
2023-03-01T13:43:04.843Z,87.25
2023-03-01T13:45:44.100Z,87.29
2023-03-01T13:48:24.918Z,87.34
2023-03-01T13:50:57.144Z,87.48
2023-03-01T13:53:27.444Z,87.58
2023-03-01T13:56:28.754Z,87.68
2023-03-01T13:59:00.644Z,87.81
2023-03-01T14:01:36.847Z,87.88
2023-03-01T14:04:21.415Z,88.09
2023-03-01T14:06:48.674Z,88.39
2023-03-01T14:09:28.262Z,88.64
2023-03-01T14:12:28.418Z,88.87
2023-03-01T14:15:15.765Z,88.88
2023-03-01T14:17:55.038Z,88.98
2023-03-01T14:20:24.007Z,89.07
2023-03-01T14:22:55.629Z,89.18
2023-03-01T14:25:32.176Z,89.23
2023-03-01T14:28:23.871Z,89.22
2023-03-01T14:30:56.910Z,89.28
2023-03-01T14:33:34.414Z,89.28
2023-03-01T14:36:05.061Z,89.27
2023-03-01T14:38:36.583Z,89.29
2023-03-01T14:41:17.205Z,89.30
2023-03-01T14:43:47.887Z,89.28
2023-03-01T14:46:39.905Z,89.35
2023-03-01T14:49:23.975Z,89.36
2023-03-01T14:52:03.033Z,89.48
2023-03-01T14:54:42.201Z,89.53
2023-03-01T14:57:18.494Z,89.53
2023-03-01T14:59:46.803Z,89.55
2023-03-01T15:02:18.556Z,89.62
2023-03-01T15:04:52.439Z,89.75
2023-03-01T15:07:20.067Z,89.77
2023-03-01T15:09:47.759Z,89.86
2023-03-01T15:12:30.110Z,89.93
2023-03-01T15:15:04.271Z,89.92
2023-03-01T15:17:35.775Z,90.05
2023-03-01T15:20:07.752Z,90.15
2023-03-01T15:22:36.308Z,90.23
2023-03-01T15:25:03.690Z,90.28
2023-03-01T15:27:30.963Z,90.26
2023-03-01T15:30:04.441Z,90.26
2023-03-01T15:32:33.076Z,90.30
2023-03-01T15:35:21.870Z,90.28
2023-03-01T15:37:49.934Z,90.36
2023-03-01T15:40:33.764Z,90.48
2023-03-01T15:43:27.389Z,90.51
2023-03-01T15:45:59.157Z,90.64
2023-03-01T15:48:27.387Z,90.62
2023-03-01T15:51:02.414Z,90.66
2023-03-01T15:53:29.567Z,90.73
2023-03-01T15:55:56.689Z,90.80
2023-03-01T15:58:25.664Z,90.88
2023-03-01T16:01:02.126Z,90.84
2023-03-01T16:03:30.122Z,90.85
2023-03-01T16:05:57.836Z,90.94
2023-03-01T16:08:25.164Z,90.93
2023-03-01T16:10:52.591Z,90.99
2023-03-01T16:13:20.257Z,91.01
2023-03-01T16:15:47.724Z,90.97
2023-03-01T16:18:14.861Z,90.98
2023-03-01T16:20:42.183Z,91.04
2023-03-01T16:23:11.705Z,91.13
2023-03-01T16:25:39.078Z,91.12
2023-03-01T16:28:10.330Z,91.06
2023-03-01T16:30:40.586Z,91.10
2023-03-01T16:33:24.383Z,91.04
2023-03-01T16:35:56.728Z,90.95
2023-03-01T16:38:24.072Z,90.86
2023-03-01T16:40:52.806Z,90.79
2023-03-01T16:43:20.205Z,90.87
2023-03-01T16:45:47.553Z,90.87
2023-03-01T16:48:15.017Z,90.96
2023-03-01T16:50:42.407Z,90.88
2023-03-01T16:53:09.744Z,91.36
2023-03-01T16:55:37.374Z,91.15
2023-03-01T16:58:05.449Z,91.09
2023-03-01T17:00:32.792Z,91.13
2023-03-01T17:02:59.998Z,91.14
2023-03-01T17:05:27.272Z,91.13
2023-03-01T17:07:56.650Z,91.11
2023-03-01T17:10:23.946Z,91.20
2023-03-01T17:12:51.329Z,91.24
2023-03-01T17:15:18.819Z,91.22
2023-03-01T17:17:46.027Z,91.27
2023-03-01T17:20:13.685Z,91.35
2023-03-01T17:22:40.919Z,91.36
2023-03-01T17:25:09.700Z,91.40
2023-03-01T17:27:38.445Z,91.40
2023-03-01T17:30:08.078Z,91.45
2023-03-01T17:32:35.410Z,91.40
2023-03-01T17:35:02.647Z,91.38
2023-03-01T17:37:29.798Z,91.42
2023-03-01T17:39:57.044Z,91.46
2023-03-01T17:42:24.258Z,91.53
2023-03-01T17:44:51.406Z,91.50
2023-03-01T17:47:18.699Z,91.53
2023-03-01T17:49:45.907Z,91.52
2023-03-01T17:52:13.173Z,91.51
2023-03-01T17:54:40.425Z,91.53
2023-03-01T17:57:07.691Z,91.53
2023-03-01T17:59:38.062Z,91.59
2023-03-01T18:02:05.505Z,91.65
2023-03-01T18:04:32.796Z,91.66
2023-03-01T18:07:00.114Z,91.70
2023-03-01T18:09:27.710Z,91.68
2023-03-01T18:11:54.929Z,91.76
2023-03-01T18:14:22.339Z,91.78
2023-03-01T18:16:49.679Z,91.82
2023-03-01T18:19:16.959Z,91.83
2023-03-01T18:21:44.588Z,91.84
2023-03-01T18:24:11.838Z,91.79
2023-03-01T18:26:40.210Z,91.81
2023-03-01T18:29:08.343Z,91.85
2023-03-01T18:31:35.680Z,91.88
2023-03-01T18:34:03.430Z,91.85
2023-03-01T18:36:35.632Z,91.89
2023-03-01T18:39:05.417Z,91.90
2023-03-01T18:41:33.662Z,91.94
2023-03-01T18:44:02.041Z,91.99
2023-03-01T18:46:29.469Z,91.99
2023-03-01T18:48:56.730Z,91.99
2023-03-01T18:51:28.392Z,91.97
2023-03-01T18:53:58.635Z,92.02
2023-03-01T18:56:28.464Z,92.04
2023-03-01T18:58:56.407Z,92.08
2023-03-01T19:01:25.980Z,92.05
2023-03-01T19:03:53.999Z,92.06
2023-03-01T19:06:21.366Z,92.07
2023-03-01T19:08:48.957Z,92.09
2023-03-01T19:11:19.500Z,92.11
2023-03-01T19:13:47.899Z,92.14
2023-03-01T19:16:17.849Z,92.16
2023-03-01T19:18:51.459Z,92.20
2023-03-01T19:21:20.702Z,92.26
2023-03-01T19:23:49.092Z,92.30
2023-03-01T19:26:19.424Z,92.28
2023-03-01T19:28:47.882Z,92.38
2023-03-01T19:31:17.872Z,92.38
2023-03-01T19:33:45.303Z,92.39
2023-03-01T19:36:13.938Z,92.39
2023-03-01T19:38:42.613Z,92.45
2023-03-01T19:41:12.622Z,92.53
2023-03-01T19:43:39.845Z,92.57
2023-03-01T19:46:07.092Z,92.58
2023-03-01T19:48:34.517Z,92.61
2023-03-01T19:51:01.740Z,92.61
2023-03-01T19:53:29.234Z,92.65
2023-03-01T19:56:01.145Z,92.72
2023-03-01T19:58:30.635Z,92.73
2023-03-01T20:00:59.129Z,92.77
2023-03-01T20:03:35.934Z,92.78
2023-03-01T20:06:12.025Z,92.85
2023-03-01T20:08:39.187Z,92.89
2023-03-01T20:11:09.163Z,92.97
2023-03-01T20:13:36.754Z,92.99
2023-03-01T20:16:04.905Z,93.04
2023-03-01T20:18:32.380Z,92.99
2023-03-01T20:21:00.165Z,93.04
2023-03-01T20:23:27.938Z,93.03
2023-03-01T20:26:03.745Z,93.01
2023-03-01T20:28:30.948Z,93.04
2023-03-01T20:31:11.971Z,93.03
2023-03-01T20:33:39.788Z,92.99
2023-03-01T20:36:08.575Z,92.99
2023-03-01T20:38:36.558Z,93.04
2023-03-01T20:41:07.554Z,93.04
2023-03-01T20:43:35.656Z,93.03
2023-03-01T20:46:07.586Z,93.07
2023-03-01T20:48:34.907Z,93.12
2023-03-01T20:51:06.533Z,93.04
2023-03-01T20:53:34.020Z,93.06
2023-03-01T20:56:05.866Z,92.97
2023-03-01T20:58:33.852Z,92.86
2023-03-01T21:01:01.662Z,92.83
2023-03-01T21:03:29.280Z,92.89
2023-03-01T21:05:57.978Z,93.21
2023-03-01T21:08:25.777Z,92.90
2023-03-01T21:10:53.697Z,92.85
2023-03-01T21:13:21.847Z,92.85
2023-03-01T21:16:10.540Z,92.74
2023-03-01T21:18:38.005Z,92.76
2023-03-01T21:21:10.420Z,92.79
2023-03-01T21:23:39.705Z,92.80
2023-03-01T21:26:12.918Z,92.80
2023-03-01T21:28:42.034Z,92.83
2023-03-01T21:31:22.433Z,92.87
2023-03-01T21:33:54.767Z,92.83
2023-03-01T21:36:23.474Z,92.76
2023-03-01T21:38:52.345Z,92.78
2023-03-01T21:41:23.041Z,92.72
2023-03-01T21:43:53.030Z,92.72
2023-03-01T21:46:25.133Z,92.76
2023-03-01T21:48:54.869Z,92.76
2023-03-01T21:51:24.548Z,92.83
2023-03-01T21:53:52.520Z,92.86
2023-03-01T21:56:22.144Z,92.93
2023-03-01T21:58:49.971Z,93.00
2023-03-01T22:01:21.287Z,92.97
2023-03-01T22:03:48.503Z,92.95
2023-03-01T22:06:22.718Z,92.85
2023-03-01T22:09:04.556Z,92.84
2023-03-01T22:11:34.370Z,92.82
2023-03-01T22:14:01.681Z,92.92
2023-03-01T22:16:31.486Z,92.87
2023-03-01T22:18:59.093Z,92.81
2023-03-01T22:21:27.063Z,92.82
2023-03-01T22:23:55.897Z,92.82
2023-03-01T22:26:33.205Z,92.80
2023-03-01T22:29:02.672Z,92.71
2023-03-01T22:31:30.368Z,92.61
2023-03-01T22:33:58.451Z,92.56
2023-03-01T22:36:26.235Z,92.58
2023-03-01T22:38:59.392Z,92.90
2023-03-01T22:41:32.345Z,93.30
2023-03-01T22:43:59.534Z,93.45
2023-03-01T22:46:27.801Z,93.52
2023-03-01T22:48:55.884Z,93.44
2023-03-01T22:51:26.058Z,93.42
2023-03-01T22:53:53.399Z,93.31
2023-03-01T22:56:24.235Z,93.35
2023-03-01T22:58:51.643Z,93.37
2023-03-01T23:01:21.570Z,93.36
2023-03-01T23:03:49.684Z,93.41
2023-03-01T23:06:19.081Z,93.38
2023-03-01T23:08:50.980Z,93.42
2023-03-01T23:11:19.982Z,93.37
2023-03-01T23:13:47.233Z,93.36
2023-03-01T23:16:15.228Z,93.32
2023-03-01T23:18:43.160Z,93.29
2023-03-01T23:21:16.370Z,93.18
2023-03-01T23:23:43.928Z,93.18
2023-03-01T23:26:11.166Z,93.29
2023-03-01T23:28:41.262Z,93.28
2023-03-01T23:31:11.284Z,93.30
2023-03-01T23:33:38.489Z,93.30
2023-03-01T23:36:26.256Z,93.29
2023-03-01T23:38:57.828Z,93.32
2023-03-01T23:41:28.429Z,93.28
2023-03-01T23:43:58.758Z,93.26
2023-03-01T23:46:28.881Z,93.24
2023-03-01T23:48:56.682Z,93.16
2023-03-01T23:51:24.683Z,93.29
2023-03-01T23:53:57.711Z,93.41
2023-03-01T23:56:31.533Z,93.51
2023-03-01T23:59:02.640Z,93.44
